createdAt,value
2022-12-26T00:00:24.723Z,6.02
2022-12-26T00:03:30.231Z,6.04
2022-12-26T00:06:38.815Z,6.12
2022-12-26T00:09:44.753Z,6.05
2022-12-26T00:12:50.093Z,6.10
2022-12-26T00:15:56.651Z,6.07
2022-12-26T00:19:02.545Z,5.88
2022-12-26T00:22:06.704Z,6.18
2022-12-26T00:25:11.665Z,6.10
2022-12-26T00:28:16.122Z,6.18
2022-12-26T00:31:24.222Z,6.17
2022-12-26T00:34:29.273Z,6.09
2022-12-26T00:37:33.559Z,6.18
2022-12-26T00:40:38.429Z,6.24
2022-12-26T00:43:42.763Z,6.42
2022-12-26T00:46:47.367Z,6.47
2022-12-26T00:50:14.212Z,6.51
2022-12-26T00:52:57.952Z,6.49
2022-12-26T00:56:02.892Z,6.54
2022-12-26T00:59:07.539Z,6.52
2022-12-26T01:02:14.779Z,6.60
2022-12-26T01:05:18.913Z,6.51
2022-12-26T01:08:25.174Z,6.48
2022-12-26T01:11:49.926Z,6.64
2022-12-26T01:14:54.478Z,6.56
2022-12-26T01:17:59.284Z,6.49
2022-12-26T01:21:04.609Z,6.70
2022-12-26T01:24:09.454Z,6.57
2022-12-26T01:27:13.807Z,6.51
2022-12-26T01:30:18.172Z,6.56
2022-12-26T01:33:22.552Z,6.54
2022-12-26T01:36:27.534Z,6.64
2022-12-26T01:39:33.155Z,6.66
2022-12-26T01:42:39.184Z,6.70
2022-12-26T01:45:45.812Z,6.73
2022-12-26T01:48:49.906Z,6.72
2022-12-26T01:51:55.603Z,6.70
2022-12-26T01:55:01.723Z,6.77
2022-12-26T01:58:11.149Z,6.84
2022-12-26T02:01:16.729Z,6.96
2022-12-26T02:04:40.649Z,7.03
2022-12-26T02:07:45.722Z,7.04
2022-12-26T02:11:02.727Z,6.93
2022-12-26T02:14:07.675Z,6.83
2022-12-26T02:17:11.759Z,6.86
2022-12-26T02:20:21.041Z,6.83
2022-12-26T02:23:29.131Z,6.78
2022-12-26T02:26:56.394Z,6.73
2022-12-26T02:30:23.548Z,6.70
2022-12-26T02:33:34.509Z,6.74
2022-12-26T02:36:55.631Z,6.25
2022-12-26T02:40:20.164Z,6.10
2022-12-26T02:43:30.031Z,6.06
2022-12-26T02:46:55.475Z,6.04
2022-12-26T02:50:33.009Z,6.19
2022-12-26T02:54:27.540Z,6.20
2022-12-26T02:57:52.294Z,6.24
2022-12-26T03:01:14.751Z,5.98
2022-12-26T03:04:38.929Z,5.90
2022-12-26T03:08:03.560Z,5.76
2022-12-26T03:11:26.243Z,5.89
2022-12-26T03:14:35.556Z,5.87
2022-12-26T03:17:43.139Z,5.87
2022-12-26T03:20:50.546Z,5.90
2022-12-26T03:23:55.518Z,5.92
2022-12-26T03:27:04.494Z,5.78
2022-12-26T03:30:27.075Z,5.77
2022-12-26T03:33:54.261Z,5.81
2022-12-26T03:37:17.135Z,6.02
2022-12-26T03:40:58.391Z,6.14
2022-12-26T03:44:30.934Z,6.16
2022-12-26T03:47:59.184Z,5.84
2022-12-26T03:51:22.574Z,5.96
2022-12-26T03:54:56.955Z,5.84
2022-12-26T03:58:26.645Z,6.00
2022-12-26T04:01:52.156Z,5.92
2022-12-26T04:05:15.628Z,6.04
2022-12-26T04:08:41.659Z,6.09
2022-12-26T04:12:04.616Z,6.14
2022-12-26T04:15:48.565Z,6.13
2022-12-26T04:19:26.187Z,6.15
2022-12-26T04:22:56.592Z,6.13
2022-12-26T04:26:20.851Z,6.02
2022-12-26T04:29:42.476Z,5.98
2022-12-26T04:33:19.318Z,5.89
2022-12-26T04:36:44.089Z,5.75
2022-12-26T04:40:06.697Z,5.75
2022-12-26T04:43:48.671Z,5.64
2022-12-26T04:46:36.322Z,5.49
2022-12-26T04:49:58.248Z,5.36
2022-12-26T04:53:04.979Z,5.24
2022-12-26T04:56:09.334Z,5.36
2022-12-26T04:59:13.467Z,5.46
2022-12-26T05:02:31.855Z,5.49
2022-12-26T05:05:54.313Z,5.52
2022-12-26T05:09:18.111Z,5.44
2022-12-26T05:12:23.134Z,5.65
2022-12-26T05:15:26.593Z,5.70
2022-12-26T05:18:49.475Z,5.67
2022-12-26T05:22:11.992Z,5.60
2022-12-26T05:25:34.282Z,5.54
2022-12-26T05:28:50.347Z,5.23
2022-12-26T05:31:55.018Z,5.70
2022-12-26T05:34:59.648Z,5.54
2022-12-26T05:38:03.885Z,4.93
2022-12-26T05:41:08.494Z,4.81
2022-12-26T05:44:12.107Z,5.04
2022-12-26T05:47:15.878Z,5.60
2022-12-26T05:50:20.489Z,5.69
2022-12-26T05:53:24.582Z,5.67
2022-12-26T05:56:30.568Z,5.60
2022-12-26T05:59:34.994Z,4.85
2022-12-26T06:02:39.083Z,5.39
2022-12-26T06:05:44.145Z,5.63
2022-12-26T06:08:48.515Z,5.68
2022-12-26T06:11:52.725Z,5.73
2022-12-26T06:14:58.101Z,5.78
2022-12-26T06:18:03.337Z,5.86
2022-12-26T06:21:08.869Z,5.96
2022-12-26T06:24:12.553Z,6.11
2022-12-26T06:27:16.316Z,5.90
2022-12-26T06:30:21.889Z,5.89
2022-12-26T06:33:26.440Z,5.97
2022-12-26T06:36:32.696Z,6.07
2022-12-26T06:39:37.911Z,6.08
2022-12-26T06:42:42.413Z,6.26
2022-12-26T06:45:46.642Z,6.29
2022-12-26T06:48:50.542Z,6.35
2022-12-26T06:51:54.793Z,6.36
2022-12-26T06:54:58.188Z,6.15
2022-12-26T06:58:01.566Z,6.08
2022-12-26T07:01:06.400Z,6.06
2022-12-26T07:04:14.574Z,6.09
2022-12-26T07:07:18.225Z,6.13
2022-12-26T07:10:24.326Z,6.14
2022-12-26T07:13:29.185Z,6.17
2022-12-26T07:16:33.519Z,6.09
2022-12-26T07:19:37.043Z,6.15
2022-12-26T07:22:42.384Z,6.26
2022-12-26T07:25:46.201Z,6.33
2022-12-26T07:28:51.118Z,6.29
2022-12-26T07:31:56.721Z,5.99
2022-12-26T07:35:01.802Z,5.89
2022-12-26T07:38:06.561Z,5.99
2022-12-26T07:41:12.719Z,6.05
2022-12-26T07:44:17.235Z,6.28
2022-12-26T07:47:21.843Z,6.43
2022-12-26T07:50:28.419Z,6.59
2022-12-26T07:53:35.962Z,6.58
2022-12-26T07:56:40.451Z,6.61
2022-12-26T07:59:45.944Z,6.69
2022-12-26T08:02:50.211Z,6.70
2022-12-26T08:06:00.326Z,6.69
2022-12-26T08:09:05.153Z,6.75
2022-12-26T08:12:09.947Z,6.83
2022-12-26T08:15:15.830Z,6.84
2022-12-26T08:18:20.955Z,6.81
2022-12-26T08:21:25.886Z,6.74
2022-12-26T08:24:29.593Z,6.74
2022-12-26T08:27:33.103Z,6.71
2022-12-26T08:30:37.423Z,6.75
2022-12-26T08:33:41.118Z,6.83
2022-12-26T08:36:45.522Z,6.79
2022-12-26T08:39:49.769Z,6.71
2022-12-26T08:43:12.135Z,6.66
2022-12-26T08:46:00.730Z,6.69
2022-12-26T08:49:06.678Z,6.68
2022-12-26T08:52:10.503Z,6.78
2022-12-26T08:55:16.891Z,6.75
2022-12-26T08:58:21.723Z,6.71
2022-12-26T09:01:29.193Z,6.56
2022-12-26T09:04:33.855Z,6.65
2022-12-26T09:07:37.466Z,6.71
2022-12-26T09:13:54.930Z,6.77
2022-12-26T09:17:01.174Z,6.84
2022-12-26T09:19:59.529Z,6.76
2022-12-26T09:22:59.162Z,6.89
2022-12-26T09:26:02.577Z,6.81
2022-12-26T09:29:06.685Z,6.93
2022-12-26T09:32:11.640Z,7.06
2022-12-26T09:35:16.111Z,6.96
2022-12-26T09:38:21.007Z,7.03
2022-12-26T09:41:47.517Z,7.04
2022-12-26T09:44:57.382Z,7.06
2022-12-26T09:48:13.632Z,7.15
2022-12-26T09:51:18.802Z,7.07
2022-12-26T09:54:27.330Z,7.01
2022-12-26T09:57:33.746Z,6.79
2022-12-26T10:00:41.793Z,6.62
2022-12-26T10:03:50.284Z,6.46
2022-12-26T10:07:06.230Z,6.35
2022-12-26T10:10:35.190Z,6.14
2022-12-26T10:13:54.723Z,6.12
2022-12-26T10:17:07.851Z,6.07
2022-12-26T10:20:13.107Z,6.03
2022-12-26T10:23:28.033Z,6.11
2022-12-26T10:26:29.375Z,6.09
2022-12-26T10:29:43.029Z,6.04
2022-12-26T10:32:53.930Z,6.01
2022-12-26T10:35:59.881Z,5.90
2022-12-26T10:39:06.523Z,5.80
2022-12-26T10:42:15.995Z,5.90
2022-12-26T10:45:32.759Z,5.85
2022-12-26T10:48:38.526Z,5.81
2022-12-26T10:51:45.256Z,5.69
2022-12-26T10:54:42.963Z,5.69
2022-12-26T10:57:50.055Z,5.73
2022-12-26T11:00:54.734Z,5.69
2022-12-26T11:04:02.283Z,5.74
2022-12-26T11:07:08.848Z,5.76
2022-12-26T11:10:15.305Z,5.73
2022-12-26T11:13:21.647Z,5.61
2022-12-26T11:16:26.795Z,5.66
2022-12-26T11:19:44.882Z,5.73
2022-12-26T11:22:49.063Z,5.86
2022-12-26T11:26:02.364Z,5.86
2022-12-26T11:29:27.102Z,5.89
2022-12-26T11:32:33.073Z,5.82
2022-12-26T11:35:40.500Z,5.82
2022-12-26T11:38:47.043Z,5.80
2022-12-26T11:41:55.532Z,5.87
2022-12-26T11:44:59.272Z,5.93
2022-12-26T11:48:03.779Z,5.89
2022-12-26T11:51:07.167Z,5.85
2022-12-26T11:54:29.551Z,5.83
2022-12-26T11:57:36.939Z,5.90
2022-12-26T12:00:41.646Z,5.98
2022-12-26T12:03:50.610Z,5.78
2022-12-26T12:07:07.339Z,5.78
2022-12-26T12:10:29.076Z,5.77
2022-12-26T12:13:36.928Z,5.84
2022-12-26T12:17:03.916Z,5.84
2022-12-26T12:20:21.630Z,5.92
2022-12-26T12:23:34.925Z,5.87
2022-12-26T12:26:54.894Z,5.85
2022-12-26T12:30:26.411Z,5.92
2022-12-26T12:33:35.855Z,5.83
2022-12-26T12:37:00.101Z,5.80
2022-12-26T12:40:33.905Z,5.79
2022-12-26T12:44:09.703Z,5.75
2022-12-26T12:47:38.177Z,5.98
2022-12-26T12:50:54.667Z,5.93
2022-12-26T12:54:09.844Z,5.79
2022-12-26T12:57:27.922Z,5.89
2022-12-26T13:00:37.152Z,5.79
2022-12-26T13:03:51.215Z,5.77
2022-12-26T13:07:04.352Z,5.74
2022-12-26T13:10:12.343Z,5.75
2022-12-26T13:13:25.693Z,5.57
2022-12-26T13:16:33.202Z,5.73
2022-12-26T13:19:40.554Z,5.80
2022-12-26T13:23:11.656Z,5.76
2022-12-26T13:26:23.589Z,5.79
2022-12-26T13:29:47.756Z,5.72
2022-12-26T13:32:52.999Z,5.57
2022-12-26T13:36:10.659Z,5.06
2022-12-26T13:39:28.960Z,5.41
2022-12-26T13:42:56.046Z,5.47
2022-12-26T13:46:04.406Z,5.61
2022-12-26T13:49:11.690Z,5.49
2022-12-26T13:52:32.383Z,5.16
2022-12-26T13:55:46.505Z,4.85
2022-12-26T13:59:11.180Z,4.82
2022-12-26T14:02:49.905Z,4.77
2022-12-26T14:05:41.216Z,4.83
2022-12-26T14:08:59.718Z,4.81
2022-12-26T14:12:12.618Z,4.96
2022-12-26T14:15:38.748Z,4.91
2022-12-26T14:18:51.886Z,4.88
2022-12-26T14:22:17.912Z,4.96
2022-12-26T14:25:50.424Z,5.36
2022-12-26T14:28:53.108Z,5.46
2022-12-26T14:32:03.153Z,5.29
2022-12-26T14:35:32.464Z,5.34
2022-12-26T14:38:43.596Z,5.24
2022-12-26T14:42:42.045Z,5.27
2022-12-26T14:45:52.177Z,5.30
2022-12-26T14:48:58.859Z,5.29
2022-12-26T14:52:04.592Z,5.33
2022-12-26T14:55:10.179Z,5.45
2022-12-26T14:58:22.849Z,5.48
2022-12-26T15:01:31.211Z,5.43
2022-12-26T15:04:39.822Z,5.53
2022-12-26T15:08:04.868Z,5.52
2022-12-26T15:11:35.122Z,5.50
2022-12-26T15:15:09.242Z,5.42
2022-12-26T15:18:41.052Z,5.46
2022-12-26T15:22:07.574Z,5.42
2022-12-26T15:25:41.796Z,5.44
2022-12-26T15:28:56.641Z,5.41
2022-12-26T15:32:12.743Z,5.47
2022-12-26T15:35:36.846Z,5.48
2022-12-26T15:38:47.918Z,5.25
2022-12-26T15:42:07.933Z,5.42
2022-12-26T15:45:28.146Z,5.50
2022-12-26T15:48:53.356Z,5.39
2022-12-26T15:52:16.702Z,5.50
2022-12-26T15:55:38.436Z,5.41
2022-12-26T15:59:02.999Z,5.50
2022-12-26T16:02:06.987Z,5.49
2022-12-26T16:05:23.690Z,5.49
2022-12-26T16:08:43.816Z,5.49
2022-12-26T16:12:09.035Z,5.56
2022-12-26T16:15:23.287Z,5.27
2022-12-26T16:18:32.466Z,5.23
2022-12-26T16:21:56.864Z,5.06
2022-12-26T16:25:01.156Z,5.04
2022-12-26T16:28:08.908Z,5.12
2022-12-26T16:31:13.987Z,5.15
2022-12-26T16:34:18.062Z,5.02
2022-12-26T16:37:22.525Z,5.13
2022-12-26T16:40:30.271Z,5.11
2022-12-26T16:43:44.122Z,5.11
2022-12-26T16:46:48.240Z,5.18
2022-12-26T16:49:47.159Z,4.96
2022-12-26T16:52:52.418Z,4.86
2022-12-26T16:56:12.081Z,4.86
2022-12-26T16:59:20.895Z,5.10
2022-12-26T17:02:35.717Z,5.08
2022-12-26T17:05:47.499Z,5.05
2022-12-26T17:09:00.383Z,5.04
2022-12-26T17:12:12.987Z,5.05
2022-12-26T17:15:19.192Z,5.10
2022-12-26T17:18:45.187Z,4.78
2022-12-26T17:21:49.560Z,5.12
2022-12-26T17:24:55.254Z,4.98
2022-12-26T17:27:54.492Z,5.21
2022-12-26T17:31:00.850Z,5.28
2022-12-26T17:34:08.822Z,5.33
2022-12-26T17:37:19.548Z,5.43
2022-12-26T17:40:35.358Z,5.41
2022-12-26T17:43:45.673Z,5.38
2022-12-26T17:46:52.139Z,5.29
2022-12-26T17:49:55.586Z,4.46
2022-12-26T17:53:01.274Z,4.55
2022-12-26T17:56:07.488Z,5.34
2022-12-26T17:59:11.269Z,5.51
2022-12-26T18:02:14.725Z,5.34
2022-12-26T18:05:12.236Z,5.37
2022-12-26T18:07:58.287Z,5.33
2022-12-26T18:10:50.537Z,5.44
2022-12-26T18:13:42.432Z,5.35
2022-12-26T18:16:47.725Z,5.34
2022-12-26T18:19:52.019Z,5.39
2022-12-26T18:22:48.724Z,5.21
2022-12-26T18:25:54.752Z,5.30
2022-12-26T18:29:00.349Z,5.27
2022-12-26T18:32:04.925Z,5.18
2022-12-26T18:35:09.128Z,5.22
2022-12-26T18:38:14.090Z,5.27
2022-12-26T18:41:18.963Z,5.24
2022-12-26T18:44:25.518Z,5.16
2022-12-26T18:47:33.268Z,5.05
2022-12-26T18:50:37.895Z,5.06
2022-12-26T18:53:42.392Z,5.04
2022-12-26T18:56:46.951Z,5.07
2022-12-26T18:59:53.389Z,5.10
2022-12-26T19:02:59.525Z,4.90
2022-12-26T19:06:04.035Z,5.05
2022-12-26T19:13:05.673Z,5.07
2022-12-26T19:16:10.104Z,4.95
2022-12-26T19:19:13.618Z,5.01
2022-12-26T19:22:18.923Z,5.01
2022-12-26T19:25:23.882Z,4.91
2022-12-26T19:28:27.777Z,4.78
2022-12-26T19:31:30.982Z,4.84
2022-12-26T19:34:36.169Z,4.90
2022-12-26T19:37:35.477Z,4.96
2022-12-26T19:40:27.643Z,4.88
2022-12-26T19:43:31.208Z,4.85
2022-12-26T19:46:35.291Z,4.85
2022-12-26T19:49:38.524Z,4.76
2022-12-26T19:52:44.127Z,4.87
2022-12-26T19:55:47.873Z,4.86
2022-12-26T19:58:56.379Z,4.95
2022-12-26T20:01:58.081Z,4.99
2022-12-26T20:05:03.488Z,5.12
2022-12-26T20:08:08.770Z,5.10
2022-12-26T20:11:19.636Z,5.08
2022-12-26T20:14:19.696Z,4.99
2022-12-26T20:17:12.107Z,5.10
2022-12-26T20:20:16.506Z,5.21
2022-12-26T20:23:21.335Z,5.25
2022-12-26T20:26:28.501Z,5.27
2022-12-26T20:29:32.681Z,5.26
2022-12-26T20:32:37.246Z,5.07
2022-12-26T20:35:41.587Z,5.04
2022-12-26T20:38:45.073Z,5.03
2022-12-26T20:41:49.472Z,5.07
2022-12-26T20:44:53.957Z,4.97
2022-12-26T20:47:58.197Z,5.01
2022-12-26T20:51:12.480Z,5.05
2022-12-26T20:54:18.616Z,4.97
2022-12-26T20:57:22.118Z,4.84
2022-12-26T21:00:21.849Z,4.75
2022-12-26T21:03:29.413Z,4.76
2022-12-26T21:06:37.440Z,4.73
2022-12-26T21:09:39.709Z,4.74
2022-12-26T21:12:22.767Z,4.77
2022-12-26T21:15:15.755Z,4.75
2022-12-26T21:18:06.168Z,4.87
2022-12-26T21:21:10.517Z,4.66
2022-12-26T21:24:18.640Z,4.68
2022-12-26T21:27:22.622Z,4.69
2022-12-26T21:30:28.483Z,4.66
2022-12-26T21:33:32.457Z,4.82
2022-12-26T21:36:36.647Z,4.89
2022-12-26T21:39:41.389Z,4.87
2022-12-26T21:42:46.363Z,4.79
2022-12-26T21:45:59.344Z,4.75
2022-12-26T21:49:02.015Z,4.62
2022-12-26T21:52:07.555Z,4.63
2022-12-26T21:55:30.568Z,4.67
2022-12-26T21:58:36.442Z,4.67
2022-12-26T22:01:41.430Z,4.61
2022-12-26T22:04:46.236Z,4.60
2022-12-26T22:07:50.848Z,4.62
2022-12-26T22:11:09.210Z,4.57
2022-12-26T22:14:12.650Z,4.52
2022-12-26T22:17:17.057Z,4.49
2022-12-26T22:20:22.971Z,4.49
2022-12-26T22:23:28.220Z,4.41
2022-12-26T22:26:33.829Z,4.41
2022-12-26T22:29:39.046Z,4.58
2022-12-26T22:32:43.887Z,4.62
2022-12-26T22:35:49.783Z,4.57
2022-12-26T22:38:54.614Z,4.61
2022-12-26T22:42:02.413Z,4.56
2022-12-26T22:45:06.250Z,4.65
2022-12-26T22:48:10.165Z,4.72
2022-12-26T22:51:14.432Z,4.61
2022-12-26T22:54:18.287Z,4.63
2022-12-26T22:57:24.480Z,4.66
2022-12-26T23:00:30.828Z,4.59
2022-12-26T23:03:41.945Z,4.61
2022-12-26T23:06:49.117Z,4.58
2022-12-26T23:09:54.786Z,4.66
2022-12-26T23:13:00.473Z,4.54
2022-12-26T23:16:29.554Z,4.51
2022-12-26T23:20:01.438Z,4.43
2022-12-26T23:23:06.473Z,4.42
2022-12-26T23:26:13.630Z,4.42
2022-12-26T23:29:36.208Z,4.49
2022-12-26T23:32:40.342Z,4.55
2022-12-26T23:35:46.480Z,4.49
2022-12-26T23:38:51.124Z,4.49
2022-12-26T23:41:55.573Z,4.54
2022-12-26T23:45:00.512Z,4.48
2022-12-26T23:48:05.360Z,4.45
2022-12-26T23:51:20.903Z,4.20
2022-12-26T23:54:25.760Z,4.22
2022-12-26T23:57:30.184Z,4.23
